createdAt,value
2018-06-29T00:01:33.408Z,99.90
2018-06-29T00:09:16.433Z,99.90
2018-06-29T00:11:52.237Z,99.90
2018-06-29T00:17:02.434Z,99.90
2018-06-29T00:22:07.720Z,99.90
2018-06-29T00:24:39.512Z,99.90
2018-06-29T00:27:11.338Z,99.90
2018-06-29T00:29:43.308Z,99.90
2018-06-29T00:32:15.169Z,99.90
2018-06-29T00:34:46.775Z,99.90
2018-06-29T00:37:18.820Z,99.90
2018-06-29T00:39:50.487Z,99.90
2018-06-29T00:42:22.107Z,99.90
2018-06-29T00:44:53.774Z,99.90
2018-06-29T00:47:25.574Z,99.90
2018-06-29T00:52:28.079Z,99.90
2018-06-29T00:57:31.034Z,99.90
2018-06-29T01:00:05.041Z,99.90
2018-06-29T01:02:36.826Z,99.90
2018-06-29T01:05:08.381Z,99.90
2018-06-29T01:07:40.142Z,99.90
2018-06-29T01:10:12.569Z,99.90
2018-06-29T01:12:44.345Z,99.90
2018-06-29T01:15:16.192Z,99.90
2018-06-29T01:17:48.127Z,99.90
2018-06-29T01:20:19.770Z,99.90
2018-06-29T01:22:51.456Z,99.90
2018-06-29T01:25:23.075Z,99.90
2018-06-29T01:27:55.299Z,99.90
2018-06-29T01:30:27.099Z,99.90
2018-06-29T01:32:59.225Z,99.90
2018-06-29T01:35:30.898Z,99.90
2018-06-29T01:38:02.587Z,99.90
2018-06-29T01:40:34.052Z,99.90
2018-06-29T01:43:05.818Z,99.90
2018-06-29T01:45:37.635Z,99.90
2018-06-29T01:48:09.751Z,99.90
2018-06-29T01:50:41.115Z,99.90
2018-06-29T01:55:43.723Z,99.90
2018-06-29T01:58:15.600Z,99.90
2018-06-29T02:00:47.436Z,99.90
2018-06-29T02:03:20.877Z,99.90
2018-06-29T02:05:52.386Z,99.90
2018-06-29T02:08:24.311Z,99.90
2018-06-29T02:10:56.631Z,99.90
2018-06-29T02:13:28.714Z,99.90
2018-06-29T02:16:00.476Z,99.90
2018-06-29T02:18:32.630Z,99.90
2018-06-29T02:21:04.410Z,99.90
2018-06-29T02:23:36.323Z,99.90
2018-06-29T02:26:07.781Z,99.90
2018-06-29T02:28:39.521Z,99.90
2018-06-29T02:31:11.325Z,99.90
2018-06-29T02:33:43.572Z,99.90
2018-06-29T02:36:15.368Z,99.90
2018-06-29T02:38:47.799Z,99.90
2018-06-29T02:41:20.344Z,99.90
2018-06-29T02:43:52.561Z,99.90
2018-06-29T02:48:55.257Z,99.90
2018-06-29T02:51:26.887Z,99.90
2018-06-29T02:53:58.927Z,99.90
2018-06-29T02:56:30.749Z,99.90
2018-06-29T02:59:02.727Z,99.90
2018-06-29T03:01:34.179Z,99.90
2018-06-29T03:04:06.194Z,99.90
2018-06-29T03:06:37.894Z,99.90
2018-06-29T03:09:10.850Z,99.90
2018-06-29T03:14:13.115Z,99.90
2018-06-29T03:16:45.234Z,99.90
2018-06-29T03:21:48.015Z,99.90
2018-06-29T03:24:20.103Z,99.90
2018-06-29T03:29:22.886Z,99.90
2018-06-29T03:31:54.258Z,99.90
2018-06-29T03:34:25.973Z,99.90
2018-06-29T03:39:28.407Z,99.90
2018-06-29T03:42:01.510Z,99.90
2018-06-29T03:44:33.199Z,99.90
2018-06-29T03:47:04.853Z,99.90
2018-06-29T03:49:36.631Z,99.90
2018-06-29T03:52:08.274Z,99.90
2018-06-29T03:54:40.229Z,99.90
2018-06-29T03:57:11.956Z,99.90
2018-06-29T03:59:43.980Z,99.90
2018-06-29T04:02:15.553Z,99.90
2018-06-29T04:04:47.342Z,99.90
2018-06-29T04:07:19.037Z,99.90
2018-06-29T04:09:50.698Z,99.90
2018-06-29T04:12:22.359Z,99.90
2018-06-29T04:14:54.458Z,99.90
2018-06-29T04:17:25.818Z,99.90
2018-06-29T04:19:57.807Z,99.90
2018-06-29T04:22:29.325Z,99.90
2018-06-29T04:25:03.352Z,99.90
2018-06-29T04:27:35.262Z,99.90
2018-06-29T04:30:07.984Z,99.90
2018-06-29T04:32:39.726Z,99.90
2018-06-29T04:35:11.899Z,99.90
2018-06-29T04:37:43.427Z,99.90
2018-06-29T04:40:16.030Z,99.90
2018-06-29T04:42:48.724Z,99.90
2018-06-29T04:45:21.039Z,99.90
2018-06-29T04:47:52.485Z,99.90
2018-06-29T04:50:24.726Z,99.90
2018-06-29T04:55:27.208Z,99.90
2018-06-29T04:57:59.017Z,99.90
2018-06-29T05:00:31.139Z,99.50
2018-06-29T05:03:02.870Z,97.40
2018-06-29T05:05:34.627Z,96.50
2018-06-29T05:08:06.203Z,95.40
2018-06-29T05:10:38.531Z,94.30
2018-06-29T05:13:10.439Z,92.90
2018-06-29T05:15:42.619Z,93.30
2018-06-29T05:18:14.204Z,94.10
2018-06-29T05:20:46.396Z,93.60
2018-06-29T05:23:18.360Z,94.00
2018-06-29T05:25:50.010Z,94.30
2018-06-29T05:28:22.073Z,92.90
2018-06-29T05:33:25.063Z,91.00
2018-06-29T05:35:56.720Z,89.90
2018-06-29T05:38:28.249Z,89.80
2018-06-29T05:41:00.101Z,87.50
2018-06-29T05:43:33.347Z,85.90
2018-06-29T05:48:36.532Z,83.60
2018-06-29T05:53:39.267Z,83.40
2018-06-29T05:56:11.331Z,82.40
2018-06-29T05:58:43.104Z,84.50
2018-06-29T06:01:15.409Z,84.90
2018-06-29T06:03:46.958Z,85.60
2018-06-29T06:06:18.653Z,83.60
2018-06-29T06:08:50.294Z,82.80
2018-06-29T06:11:22.071Z,80.60
2018-06-29T06:13:53.783Z,80.60
2018-06-29T06:19:08.995Z,76.70
2018-06-29T06:21:40.703Z,77.30
2018-06-29T06:24:12.358Z,76.00
2018-06-29T06:26:44.323Z,76.30
2018-06-29T06:29:15.924Z,75.10
2018-06-29T06:31:47.954Z,74.10
2018-06-29T06:34:19.578Z,72.60
2018-06-29T06:36:51.443Z,72.80
2018-06-29T06:39:23.194Z,72.10
2018-06-29T06:41:55.278Z,72.70
2018-06-29T06:44:28.137Z,71.90
2018-06-29T06:47:00.184Z,73.40
2018-06-29T06:49:31.829Z,73.00
2018-06-29T06:54:34.846Z,75.60
2018-06-29T06:57:06.647Z,76.20
2018-06-29T06:59:38.328Z,76.10
2018-06-29T07:02:10.187Z,76.10
2018-06-29T07:04:42.162Z,75.10
2018-06-29T07:07:14.026Z,74.30
2018-06-29T07:09:45.506Z,73.10
2018-06-29T07:12:17.869Z,72.90
2018-06-29T07:14:49.410Z,74.10
2018-06-29T07:17:21.355Z,71.90
2018-06-29T07:19:52.757Z,70.10
2018-06-29T07:24:55.366Z,68.20
2018-06-29T07:27:27.357Z,67.60
2018-06-29T07:29:58.874Z,65.20
2018-06-29T07:32:31.351Z,63.60
2018-06-29T07:40:04.938Z,64.30
2018-06-29T07:42:37.375Z,62.40
2018-06-29T07:45:09.867Z,61.60
2018-06-29T07:47:42.030Z,63.40
2018-06-29T07:50:13.754Z,63.90
2018-06-29T07:55:16.470Z,66.80
2018-06-29T07:57:48.341Z,68.10
2018-06-29T08:00:20.295Z,67.10
2018-06-29T08:02:51.960Z,65.50
2018-06-29T08:07:54.608Z,65.20
2018-06-29T08:10:26.191Z,65.00
2018-06-29T08:12:58.363Z,65.60
2018-06-29T08:15:30.111Z,65.10
2018-06-29T08:18:01.995Z,65.20
2018-06-29T08:20:34.100Z,65.20
2018-06-29T08:25:37.223Z,65.90
2018-06-29T08:28:09.041Z,65.80
2018-06-29T08:33:11.755Z,65.10
2018-06-29T08:35:43.223Z,63.90
2018-06-29T08:38:15.027Z,63.60
2018-06-29T08:40:46.643Z,62.20
2018-06-29T08:43:18.722Z,62.70
2018-06-29T08:45:51.427Z,63.70
2018-06-29T08:48:23.454Z,63.30
2018-06-29T08:50:55.122Z,63.50
2018-06-29T08:53:27.019Z,63.60
2018-06-29T08:55:58.961Z,63.30
2018-06-29T08:58:30.652Z,63.20
2018-06-29T09:01:02.660Z,65.80
2018-06-29T09:03:34.427Z,65.10
2018-06-29T09:06:06.040Z,66.00
2018-06-29T09:08:37.763Z,65.40
2018-06-29T09:11:09.995Z,65.90
2018-06-29T09:13:42.626Z,66.20
2018-06-29T09:16:14.624Z,66.20
2018-06-29T09:18:47.817Z,68.20
2018-06-29T09:23:51.796Z,68.40
2018-06-29T09:26:23.373Z,64.20
2018-06-29T09:31:26.047Z,63.40
2018-06-29T09:33:58.290Z,62.40
2018-06-29T09:36:30.080Z,63.30
2018-06-29T09:39:01.802Z,62.80
2018-06-29T09:41:33.388Z,62.00
2018-06-29T09:44:05.867Z,60.20
2018-06-29T09:46:37.863Z,61.00
2018-06-29T09:49:09.785Z,59.90
2018-06-29T09:51:41.464Z,60.10
2018-06-29T09:54:13.379Z,59.90
2018-06-29T09:56:45.190Z,60.50
2018-06-29T09:59:16.990Z,60.00
2018-06-29T10:01:48.629Z,59.60
2018-06-29T10:04:20.635Z,60.40
2018-06-29T10:06:52.270Z,59.60
2018-06-29T10:09:23.869Z,58.90
2018-06-29T10:11:55.431Z,59.70
2018-06-29T10:14:27.422Z,60.10
2018-06-29T10:16:59.192Z,60.20
2018-06-29T10:22:02.104Z,62.00
2018-06-29T10:24:34.060Z,61.40
2018-06-29T10:27:05.696Z,61.50
2018-06-29T10:29:37.400Z,60.80
2018-06-29T10:32:08.888Z,88.30
2018-06-29T10:34:40.648Z,99.90
2018-06-29T10:37:12.211Z,99.90
2018-06-29T10:39:44.188Z,99.90
2018-06-29T10:47:17.767Z,98.80
2018-06-29T10:49:49.867Z,99.70
2018-06-29T10:52:21.811Z,99.70
2018-06-29T10:57:24.708Z,99.20
2018-06-29T10:59:56.373Z,98.50
2018-06-29T11:02:28.272Z,98.00
2018-06-29T11:04:59.855Z,98.10
2018-06-29T11:07:31.402Z,97.60
2018-06-29T11:10:03.248Z,97.30
2018-06-29T11:12:34.822Z,98.10
2018-06-29T11:17:37.312Z,99.50
2018-06-29T11:20:09.036Z,99.90
2018-06-29T11:22:40.493Z,99.90
2018-06-29T11:25:12.213Z,99.00
2018-06-29T11:27:43.768Z,98.80
2018-06-29T11:30:15.362Z,98.30
2018-06-29T11:32:46.989Z,98.10
2018-06-29T11:35:18.961Z,99.90
2018-06-29T11:37:50.357Z,99.90
2018-06-29T11:42:52.511Z,99.90
2018-06-29T11:45:24.259Z,99.90
2018-06-29T11:47:56.773Z,99.90
2018-06-29T11:50:28.508Z,99.90
2018-06-29T11:53:00.216Z,99.90
2018-06-29T11:55:31.931Z,99.90
2018-06-29T11:58:04.075Z,99.90
2018-06-29T12:03:07.064Z,99.90
2018-06-29T12:05:38.683Z,99.90
2018-06-29T12:08:10.028Z,99.90
2018-06-29T12:10:41.945Z,99.90
2018-06-29T12:13:13.515Z,99.90
2018-06-29T12:15:45.112Z,99.90
2018-06-29T12:20:47.555Z,99.90
2018-06-29T12:25:49.876Z,99.50
2018-06-29T12:28:21.473Z,99.10
2018-06-29T12:30:53.221Z,99.00
2018-06-29T12:33:24.588Z,99.10
2018-06-29T12:35:56.404Z,99.00
2018-06-29T12:38:28.012Z,98.70
2018-06-29T12:40:59.795Z,98.10
2018-06-29T12:43:31.353Z,97.50
2018-06-29T12:46:03.372Z,97.60
2018-06-29T12:48:35.211Z,98.50
2018-06-29T12:53:38.012Z,98.20
2018-06-29T12:56:09.889Z,97.20
2018-06-29T13:01:11.978Z,97.20
2018-06-29T13:03:43.384Z,96.80
2018-06-29T13:06:15.143Z,96.30
2018-06-29T13:08:46.437Z,96.00
2018-06-29T13:11:18.017Z,94.90
2018-06-29T13:13:49.592Z,94.00
2018-06-29T13:16:21.169Z,93.60
2018-06-29T13:18:52.641Z,92.90
2018-06-29T13:23:55.011Z,91.90
2018-06-29T13:26:27.045Z,91.60
2018-06-29T13:31:29.485Z,91.00
2018-06-29T13:34:00.926Z,89.90
2018-06-29T13:36:32.820Z,89.60
2018-06-29T13:39:05.233Z,89.00
2018-06-29T13:41:37.035Z,88.10
2018-06-29T13:44:08.822Z,88.80
2018-06-29T13:46:40.429Z,89.30
2018-06-29T13:49:12.946Z,88.70
2018-06-29T13:54:15.351Z,87.80
2018-06-29T13:56:46.972Z,88.00
2018-06-29T13:59:19.345Z,88.00
2018-06-29T14:01:51.456Z,87.10
2018-06-29T14:04:22.953Z,87.20
2018-06-29T14:06:54.956Z,88.00
2018-06-29T14:09:26.387Z,88.80
2018-06-29T14:12:07.344Z,88.30
2018-06-29T14:14:40.508Z,86.40
2018-06-29T14:17:12.576Z,85.70
2018-06-29T14:22:15.477Z,83.40
2018-06-29T14:24:46.838Z,81.70
2018-06-29T14:27:18.686Z,81.30
2018-06-29T14:29:50.315Z,81.00
2018-06-29T14:32:21.788Z,81.30
2018-06-29T14:35:01.655Z,81.70
2018-06-29T14:40:04.785Z,81.80
2018-06-29T14:42:37.221Z,82.40
2018-06-29T14:45:08.644Z,81.30
2018-06-29T14:47:40.357Z,80.40
2018-06-29T14:50:13.537Z,80.20
2018-06-29T14:52:45.248Z,80.60
2018-06-29T14:55:16.700Z,79.00
2018-06-29T15:00:25.603Z,78.20
2018-06-29T15:05:52.971Z,77.60
2018-06-29T15:08:24.732Z,77.60
2018-06-29T15:10:56.528Z,77.70
2018-06-29T15:13:28.436Z,77.60
2018-06-29T15:15:59.922Z,77.50
2018-06-29T15:18:32.048Z,77.70
2018-06-29T15:21:03.624Z,78.00
2018-06-29T15:23:35.739Z,78.10
2018-06-29T15:26:07.672Z,78.40
2018-06-29T15:28:39.466Z,79.80
2018-06-29T15:31:10.873Z,82.80
2018-06-29T15:33:42.575Z,81.10
2018-06-29T15:36:13.924Z,79.90
2018-06-29T15:38:45.908Z,79.70
2018-06-29T15:43:48.659Z,79.40
2018-06-29T15:48:51.107Z,82.90
2018-06-29T15:51:23.833Z,84.00
2018-06-29T15:53:55.523Z,85.20
2018-06-29T15:56:26.712Z,85.10
2018-06-29T15:58:57.804Z,83.80
2018-06-29T16:01:29.184Z,82.70
2018-06-29T16:06:31.650Z,83.00
2018-06-29T16:11:34.066Z,92.10
2018-06-29T16:19:07.109Z,93.70
2018-06-29T16:21:38.586Z,91.90
2018-06-29T16:24:10.630Z,89.40
2018-06-29T16:26:42.061Z,86.50
2018-06-29T16:29:13.871Z,85.00
2018-06-29T16:31:45.313Z,83.70
2018-06-29T16:34:16.992Z,82.30
2018-06-29T16:36:48.369Z,81.90
2018-06-29T16:39:20.057Z,81.50
2018-06-29T16:41:51.467Z,81.00
2018-06-29T16:44:24.244Z,80.70
2018-06-29T16:49:27.455Z,81.60
2018-06-29T16:52:00.036Z,81.00
2018-06-29T16:54:31.532Z,80.30
2018-06-29T16:57:03.051Z,80.40
2018-06-29T16:59:35.933Z,80.30
2018-06-29T17:02:07.425Z,80.80
2018-06-29T17:04:38.913Z,80.50
2018-06-29T17:07:10.321Z,80.20
2018-06-29T17:12:13.704Z,80.00
2018-06-29T17:17:16.215Z,80.20
2018-06-29T17:22:18.747Z,79.70
2018-06-29T17:24:50.860Z,79.60
2018-06-29T17:27:22.786Z,79.70
2018-06-29T17:29:54.857Z,79.60
2018-06-29T17:32:26.293Z,79.20
2018-06-29T17:34:57.962Z,79.10
2018-06-29T17:37:29.931Z,78.90
2018-06-29T17:40:01.592Z,78.90
2018-06-29T17:42:33.197Z,79.00
2018-06-29T17:47:35.546Z,77.90
2018-06-29T17:50:07.224Z,77.60
2018-06-29T17:52:39.137Z,77.70
2018-06-29T17:55:11.337Z,77.50
2018-06-29T17:57:42.753Z,77.40
2018-06-29T18:00:14.481Z,77.20
2018-06-29T18:02:46.032Z,77.00
2018-06-29T18:07:49.853Z,76.20
2018-06-29T18:10:21.712Z,76.10
2018-06-29T18:12:53.037Z,75.90
2018-06-29T18:15:24.989Z,75.50
2018-06-29T18:17:56.552Z,75.20
2018-06-29T18:20:28.419Z,74.90
2018-06-29T18:23:00.096Z,74.10
2018-06-29T18:25:31.978Z,73.20
2018-06-29T18:30:34.052Z,72.70
2018-06-29T18:33:09.166Z,72.00
2018-06-29T18:35:41.053Z,72.10
2018-06-29T18:38:12.540Z,72.40
2018-06-29T18:40:44.803Z,73.10
2018-06-29T18:43:25.282Z,73.30
2018-06-29T18:45:58.281Z,73.50
2018-06-29T18:48:29.709Z,74.40
2018-06-29T18:51:01.686Z,73.30
2018-06-29T18:53:34.730Z,73.00
2018-06-29T18:56:14.180Z,73.50
2018-06-29T19:04:14.367Z,76.80
2018-06-29T19:06:45.692Z,76.90
2018-06-29T19:14:21.392Z,78.90
2018-06-29T19:16:53.919Z,80.00
2018-06-29T19:19:26.839Z,80.70
2018-06-29T19:21:58.517Z,81.60
2018-06-29T19:24:31.195Z,82.80
2018-06-29T19:27:03.692Z,83.40
2018-06-29T19:29:35.183Z,84.00
2018-06-29T19:32:08.616Z,84.40
2018-06-29T19:34:40.249Z,86.00
2018-06-29T19:37:12.021Z,88.50
2018-06-29T19:39:43.806Z,90.60
2018-06-29T19:42:15.528Z,91.00
2018-06-29T19:44:47.358Z,91.30
2018-06-29T19:47:19.308Z,91.60
2018-06-29T19:49:50.963Z,92.00
2018-06-29T19:52:23.830Z,92.00
2018-06-29T19:54:57.968Z,92.10
2018-06-29T19:57:29.545Z,92.20
2018-06-29T20:00:01.066Z,92.40
2018-06-29T20:02:32.988Z,92.70
2018-06-29T20:05:04.947Z,93.10
2018-06-29T20:07:37.071Z,93.40
2018-06-29T20:10:08.979Z,94.30
2018-06-29T20:12:41.096Z,95.10
2018-06-29T20:15:12.523Z,94.80
2018-06-29T20:17:44.516Z,95.10
2018-06-29T20:20:16.384Z,95.20
2018-06-29T20:22:48.120Z,95.40
2018-06-29T20:25:19.914Z,95.60
2018-06-29T20:27:51.830Z,95.90
2018-06-29T20:35:25.667Z,95.50
2018-06-29T20:37:57.375Z,95.00
2018-06-29T20:40:29.195Z,94.80
2018-06-29T20:43:01.198Z,94.60
2018-06-29T20:45:33.242Z,94.30
2018-06-29T20:48:05.276Z,94.00
2018-06-29T20:55:39.756Z,93.10
2018-06-29T21:00:42.320Z,91.60
2018-06-29T21:03:14.213Z,90.80
2018-06-29T21:08:17.210Z,89.30
2018-06-29T21:10:49.537Z,88.30
2018-06-29T21:15:51.937Z,86.00
2018-06-29T21:18:24.167Z,85.20
2018-06-29T21:20:55.380Z,84.90
2018-06-29T21:23:27.076Z,84.80
2018-06-29T21:25:58.632Z,84.70
2018-06-29T21:28:31.050Z,83.80
2018-06-29T21:31:03.301Z,83.40
2018-06-29T21:33:35.091Z,82.70
2018-06-29T21:36:06.584Z,81.70
2018-06-29T21:38:38.168Z,81.50
2018-06-29T21:41:09.931Z,81.20
2018-06-29T21:43:41.724Z,81.20
2018-06-29T21:46:14.280Z,81.30
2018-06-29T21:48:46.195Z,81.20
2018-06-29T21:51:17.807Z,81.30
2018-06-29T21:53:49.662Z,81.30
2018-06-29T22:01:23.781Z,79.20
2018-06-29T22:03:55.707Z,79.00
2018-06-29T22:06:27.333Z,78.30
2018-06-29T22:08:59.564Z,78.10
2018-06-29T22:11:31.308Z,77.90
2018-06-29T22:14:03.164Z,78.30
2018-06-29T22:21:36.385Z,78.40
2018-06-29T22:26:39.859Z,77.60
2018-06-29T22:29:11.524Z,77.40
2018-06-29T22:31:43.427Z,76.90
2018-06-29T22:34:15.870Z,76.20
2018-06-29T22:36:47.272Z,76.80
2018-06-29T22:39:19.435Z,76.80
2018-06-29T22:44:21.890Z,74.90
2018-06-29T22:54:25.923Z,74.10
2018-06-29T22:56:58.444Z,74.60
2018-06-29T22:59:30.152Z,74.50
2018-06-29T23:02:01.622Z,74.50
2018-06-29T23:04:33.584Z,74.50
2018-06-29T23:07:05.036Z,74.00
2018-06-29T23:09:36.781Z,73.90
2018-06-29T23:12:08.895Z,73.90
2018-06-29T23:14:41.381Z,74.10
2018-06-29T23:17:13.071Z,74.20
2018-06-29T23:19:45.044Z,74.40
2018-06-29T23:22:16.805Z,74.30
2018-06-29T23:24:49.420Z,74.70
2018-06-29T23:27:21.507Z,75.60
2018-06-29T23:29:53.827Z,75.10
2018-06-29T23:32:25.949Z,74.90
2018-06-29T23:34:58.084Z,75.10
2018-06-29T23:37:29.775Z,74.90
2018-06-29T23:40:02.017Z,74.90
2018-06-29T23:42:33.868Z,75.10
2018-06-29T23:45:05.838Z,75.70
2018-06-29T23:50:09.004Z,76.80
2018-06-29T23:52:40.847Z,77.40
2018-06-29T23:55:12.940Z,78.30
2018-06-29T23:57:46.507Z,78.80
